Time;durP1;ratioP1;P1;durP2;ratioP2;P2;SDS_P1;SDS_P2;PMS_P1;PMS_P2;Temp;Humidity;BMP_temperature;BMP_pressure;BME280_temperature;BME280_humidity;BME280_pressure;Samples;Min_cycle;Max_cycle;Signal;HPM_P1;HPM_P2
2022/04/12 00:02:17;;;;;;;0.20;0.20;;;9.20;99.90;;;;;;4990090;28;20191;-84
2022/04/12 00:04:43;;;;;;;0.30;0.30;;;9.30;99.90;;;;;;4988258;28;20191;-84
2022/04/12 00:07:08;;;;;;;0.70;0.37;;;9.20;99.90;;;;;;4989399;28;20208;-84
2022/04/12 00:09:34;;;;;;;0.53;0.30;;;9.20;99.90;;;;;;4988570;28;20285;-84
2022/04/12 00:11:59;;;;;;;0.30;0.30;;;9.20;99.90;;;;;;4988159;28;20214;-84
2022/04/12 00:14:25;;;;;;;0.40;0.40;;;9.10;99.90;;;;;;4989696;28;20995;-85
2022/04/12 00:19:02;;;;;;;0.60;0.60;;;9.10;99.90;;;;;;4989298;28;20253;-84
2022/04/12 00:19:36;;;;;;;0.63;0.63;;;9.10;99.90;;;;;;4989427;28;20188;-84
2022/04/12 00:22:01;;;;;;;0.20;0.20;;;9.10;99.90;;;;;;4988004;28;20202;-83
2022/04/12 00:24:27;;;;;;;0.60;0.60;;;9.10;99.90;;;;;;4986788;28;20194;-84
2022/04/12 00:26:52;;;;;;;0.20;0.20;;;9.10;99.90;;;;;;4988543;28;20264;-83
2022/04/12 00:29:18;;;;;;;0.70;0.70;;;9.10;99.90;;;;;;4988171;28;20602;-84
2022/04/12 00:31:43;;;;;;;0.20;0.20;;;9.00;99.90;;;;;;4989342;28;20354;-84
2022/04/12 00:34:09;;;;;;;0.60;0.60;;;9.00;99.90;;;;;;4989636;28;20187;-84
2022/04/12 00:36:35;;;;;;;0.23;0.23;;;9.00;99.90;;;;;;4988800;28;20338;-84
2022/04/12 00:39:00;;;;;;;0.30;0.30;;;9.00;99.90;;;;;;4987825;28;20194;-84
2022/04/12 00:41:35;;;;;;;0.60;0.60;;;9.00;99.90;;;;;;4987395;28;20220;-84
2022/04/12 00:44:00;;;;;;;0.57;0.40;;;9.00;99.90;;;;;;4987294;28;20194;-84
2022/04/12 00:46:26;;;;;;;0.20;0.20;;;9.00;99.90;;;;;;4987326;28;20281;-84
2022/04/12 00:48:52;;;;;;;1.50;0.40;;;9.00;99.90;;;;;;4987496;28;20949;-84
2022/04/12 00:51:17;;;;;;;0.97;0.30;;;9.00;99.90;;;;;;4988314;28;20241;-84
2022/04/12 00:53:44;;;;;;;0.60;0.20;;;9.10;99.90;;;;;;4986807;28;20207;-84
2022/04/12 00:56:10;;;;;;;1.03;0.50;;;9.10;99.90;;;;;;4994784;28;21849;-84
2022/04/12 00:58:36;;;;;;;0.47;0.47;;;9.10;99.90;;;;;;4987422;28;20196;-84
2022/04/12 01:01:01;;;;;;;0.43;0.43;;;9.10;99.90;;;;;;4985729;28;20198;-84
2022/04/12 01:03:27;;;;;;;0.53;0.53;;;9.10;99.90;;;;;;4996300;28;20669;-84
2022/04/12 01:05:53;;;;;;;0.77;0.73;;;9.00;99.90;;;;;;4987586;28;20203;-84
2022/04/12 01:08:20;;;;;;;0.50;0.20;;;9.00;99.90;;;;;;4987074;28;20203;-84
2022/04/12 01:10:46;;;;;;;0.40;0.30;;;9.10;99.90;;;;;;4987655;28;20218;-84
2022/04/12 01:13:11;;;;;;;0.40;0.40;;;9.10;99.90;;;;;;4986821;28;20202;-84
2022/04/12 01:15:37;;;;;;;0.10;0.10;;;9.10;99.90;;;;;;5003341;28;20189;-84
2022/04/12 01:18:03;;;;;;;0.37;0.37;;;9.10;99.90;;;;;;4987402;28;20202;-84
2022/04/12 01:20:30;;;;;;;0.30;0.30;;;9.00;99.90;;;;;;4986393;28;20185;-84
2022/04/12 01:23:06;;;;;;;0.10;0.10;;;9.00;99.90;;;;;;4985951;28;20193;-84
2022/04/12 01:25:32;;;;;;;0.50;0.30;;;9.00;99.90;;;;;;4985155;28;21198;-84
2022/04/12 01:27:57;;;;;;;0.10;0.10;;;9.00;99.90;;;;;;4986177;28;20210;-84
2022/04/12 01:30:23;;;;;;;0.30;0.30;;;8.90;99.90;;;;;;4986955;28;20263;-84
2022/04/12 01:32:49;;;;;;;0.53;0.53;;;8.90;99.90;;;;;;4985962;28;20232;-84
2022/04/12 01:35:14;;;;;;;0.10;0.10;;;8.90;99.90;;;;;;4984996;28;20190;-84
2022/04/12 01:37:40;;;;;;;0.10;0.10;;;8.90;99.90;;;;;;4986459;28;20202;-84
2022/04/12 01:40:06;;;;;;;0.77;0.77;;;8.90;99.90;;;;;;4986363;28;20193;-84
2022/04/12 01:42:32;;;;;;;0.73;0.73;;;9.00;99.90;;;;;;4986808;28;20720;-84
2022/04/12 01:44:58;;;;;;;0.40;0.40;;;9.10;99.90;;;;;;4985498;28;20188;-84
2022/04/12 01:47:23;;;;;;;0.20;0.20;;;9.10;99.90;;;;;;4985471;28;20340;-84
2022/04/12 01:49:49;;;;;;;0.17;0.17;;;9.00;99.90;;;;;;4987393;28;20673;-85
2022/04/12 01:52:17;;;;;;;0.40;0.40;;;9.10;99.90;;;;;;4984281;28;20693;-84
2022/04/12 01:54:43;;;;;;;0.27;0.27;;;9.10;99.90;;;;;;4986601;28;20191;-84
2022/04/12 01:57:08;;;;;;;1.47;0.57;;;8.90;99.90;;;;;;4986490;28;20212;-85
2022/04/12 01:59:34;;;;;;;0.20;0.20;;;8.80;99.90;;;;;;4986720;28;20197;-85
2022/04/12 02:01:59;;;;;;;0.93;0.33;;;8.80;99.90;;;;;;4987579;28;20219;-84
2022/04/12 02:04:25;;;;;;;1.10;0.80;;;8.80;99.90;;;;;;4985802;28;20189;-84
2022/04/12 02:06:51;;;;;;;0.97;0.67;;;8.80;99.90;;;;;;4985977;28;20301;-84
2022/04/12 02:09:16;;;;;;;0.30;0.30;;;8.70;99.90;;;;;;4986942;28;20794;-84
2022/04/12 02:11:42;;;;;;;0.20;0.20;;;8.60;99.90;;;;;;4985651;28;20199;-83
2022/04/12 02:14:08;;;;;;;0.50;0.50;;;8.60;99.90;;;;;;4986122;28;20188;-84
2022/04/12 02:16:34;;;;;;;0.73;0.50;;;8.60;99.90;;;;;;4988798;28;20214;-84
2022/04/12 02:18:59;;;;;;;5.00;0.57;;;8.60;99.90;;;;;;4998823;28;20773;-84
2022/04/12 02:21:25;;;;;;;0.30;0.30;;;8.60;99.90;;;;;;4990099;28;20195;-84
2022/04/12 02:23:50;;;;;;;0.53;0.53;;;8.60;99.90;;;;;;4990317;28;20698;-84
2022/04/12 02:26:16;;;;;;;0.50;0.50;;;8.60;99.90;;;;;;4991710;28;20247;-84
2022/04/12 02:28:41;;;;;;;0.53;0.53;;;8.60;99.90;;;;;;4990038;28;20698;-85
2022/04/12 02:31:07;;;;;;;0.40;0.40;;;8.60;99.90;;;;;;4990343;28;20617;-84
2022/04/12 02:33:33;;;;;;;0.20;0.20;;;8.60;99.90;;;;;;4989334;28;20240;-84
2022/04/12 02:35:58;;;;;;;0.30;0.30;;;8.60;99.90;;;;;;4991346;28;20230;-84
2022/04/12 02:38:24;;;;;;;0.93;0.93;;;8.60;99.90;;;;;;4990749;28;20186;-84
2022/04/12 02:40:49;;;;;;;0.53;0.53;;;8.70;99.90;;;;;;4989682;28;20186;-84
2022/04/12 02:43:15;;;;;;;0.10;0.10;;;8.60;99.90;;;;;;4989869;28;20231;-84
2022/04/12 02:45:40;;;;;;;0.73;0.60;;;8.70;99.90;;;;;;4989982;28;20378;-84
2022/04/12 02:48:08;;;;;;;1.43;0.70;;;8.70;99.90;;;;;;4989879;28;20280;-84
2022/04/12 02:50:34;;;;;;;0.50;0.50;;;8.70;99.90;;;;;;4989854;28;20305;-84
2022/04/12 02:53:00;;;;;;;0.30;0.30;;;8.70;99.90;;;;;;4989316;28;20738;-84
2022/04/12 02:55:25;;;;;;;0.47;0.47;;;8.70;99.90;;;;;;4991131;28;20181;-84
2022/04/12 02:57:51;;;;;;;0.30;0.10;;;8.80;99.90;;;;;;4991198;28;20262;-84
2022/04/12 03:00:17;;;;;;;0.30;0.30;;;8.80;99.90;;;;;;4989658;28;20602;-84
2022/04/12 03:02:43;;;;;;;0.77;0.77;;;8.80;99.90;;;;;;4998211;28;20939;-84
2022/04/12 03:05:09;;;;;;;0.17;0.17;;;8.70;99.90;;;;;;4990864;28;20191;-84
2022/04/12 03:07:35;;;;;;;0.67;0.37;;;8.70;99.90;;;;;;4989593;28;20210;-84
2022/04/12 03:10:01;;;;;;;0.10;0.10;;;8.70;99.90;;;;;;4989058;28;20193;-84
2022/04/12 03:12:26;;;;;;;0.23;0.20;;;8.60;99.90;;;;;;4989052;28;20564;-84
2022/04/12 03:14:52;;;;;;;0.10;0.10;;;8.70;99.90;;;;;;4988910;28;20202;-84
2022/04/12 03:17:18;;;;;;;0.97;0.87;;;8.60;99.90;;;;;;4989310;28;20204;-84
2022/04/12 03:19:43;;;;;;;0.20;0.20;;;8.60;99.90;;;;;;4989555;28;20192;-84
2022/04/12 03:22:09;;;;;;;0.63;0.63;;;8.60;99.90;;;;;;4986532;28;20187;-83
2022/04/12 03:24:36;;;;;;;0.27;0.27;;;8.60;99.90;;;;;;4990165;28;20198;-83
2022/04/12 03:27:01;;;;;;;0.30;0.30;;;8.60;99.90;;;;;;4989368;28;20215;-84
2022/04/12 03:29:27;;;;;;;0.20;0.20;;;8.50;99.90;;;;;;4989696;28;20195;-85
2022/04/12 03:31:53;;;;;;;0.10;0.10;;;8.50;99.90;;;;;;4989641;28;20305;-85
2022/04/12 03:34:19;;;;;;;0.30;0.30;;;8.50;99.90;;;;;;4988558;28;20182;-84
2022/04/12 03:36:46;;;;;;;0.20;0.20;;;8.50;99.90;;;;;;4997312;28;20202;-84
2022/04/12 03:39:17;;;;;;;0.10;0.10;;;8.40;99.90;;;;;;4988390;28;20687;-84
2022/04/12 03:41:46;;;;;;;0.20;0.20;;;8.50;99.90;;;;;;4990596;28;20290;-84
2022/04/12 03:44:13;;;;;;;0.20;0.20;;;8.50;99.90;;;;;;4985226;28;20687;-84
2022/04/12 03:46:39;;;;;;;0.33;0.33;;;8.50;99.90;;;;;;4986589;28;20281;-84
2022/04/12 03:49:04;;;;;;;0.20;0.20;;;8.50;99.90;;;;;;4987027;28;20191;-84
2022/04/12 03:51:30;;;;;;;0.33;0.33;;;8.50;99.90;;;;;;4987717;28;20312;-85
2022/04/12 03:53:56;;;;;;;0.13;0.13;;;8.50;99.90;;;;;;4983951;28;20187;-84
2022/04/12 03:56:22;;;;;;;0.47;0.37;;;8.50;99.90;;;;;;4988615;28;20208;-84
2022/04/12 03:58:47;;;;;;;0.17;0.17;;;8.50;99.90;;;;;;4987203;28;20571;-85
2022/04/12 04:01:13;;;;;;;0.30;0.30;;;8.50;99.90;;;;;;4990554;28;20188;-84
2022/04/12 04:03:39;;;;;;;0.47;0.47;;;8.50;99.90;;;;;;4989313;28;20187;-84
2022/04/12 04:06:05;;;;;;;1.23;0.60;;;8.40;99.90;;;;;;4989490;28;20946;-85
2022/04/12 04:08:32;;;;;;;0.23;0.23;;;8.50;99.90;;;;;;4987535;28;20220;-84
2022/04/12 04:10:57;;;;;;;0.50;0.43;;;8.50;99.90;;;;;;4989309;28;20203;-84
2022/04/12 04:13:26;;;;;;;0.20;0.20;;;8.60;99.90;;;;;;4988465;28;20189;-84
2022/04/12 04:15:53;;;;;;;0.40;0.40;;;8.70;99.90;;;;;;4988126;28;20201;-85
2022/04/12 04:18:18;;;;;;;0.30;0.30;;;8.70;99.90;;;;;;5004214;28;20213;-84
2022/04/12 04:20:44;;;;;;;0.80;0.80;;;8.60;99.90;;;;;;4987619;28;20270;-84
2022/04/12 04:23:09;;;;;;;0.20;0.20;;;8.70;99.90;;;;;;4987680;28;21047;-84
2022/04/12 04:25:35;;;;;;;0.30;0.30;;;8.70;99.90;;;;;;4987613;28;20187;-85
2022/04/12 04:28:02;;;;;;;2.40;0.40;;;8.80;99.90;;;;;;4987902;28;20695;-84
2022/04/12 04:30:28;;;;;;;0.40;0.40;;;8.90;99.90;;;;;;4988149;28;20206;-84
2022/04/12 04:32:53;;;;;;;0.30;0.30;;;9.00;99.90;;;;;;4988511;28;20187;-85
2022/04/12 04:35:19;;;;;;;0.20;0.20;;;9.00;99.90;;;;;;4990316;28;20214;-85
2022/04/12 04:37:46;;;;;;;0.47;0.47;;;9.00;99.90;;;;;;4986568;28;20210;-85
2022/04/12 04:40:20;;;;;;;0.30;0.30;;;8.90;99.90;;;;;;4986766;28;20200;-85
2022/04/12 04:42:46;;;;;;;0.77;0.50;;;8.90;99.90;;;;;;4988844;28;20191;-84
2022/04/12 04:45:13;;;;;;;0.13;0.13;;;8.50;99.90;;;;;;4987493;28;20214;-84
2022/04/12 04:47:56;;;;;;;0.50;0.50;;;8.20;99.90;;;;;;4988934;28;20218;-84
2022/04/12 04:50:24;;;;;;;1.87;1.70;;;8.00;99.90;;;;;;4987957;28;20269;-84
2022/04/12 04:52:49;;;;;;;2.43;0.60;;;7.90;99.90;;;;;;4987312;28;20204;-84
2022/04/12 04:55:16;;;;;;;0.20;0.20;;;8.00;99.90;;;;;;4988079;28;20189;-85
2022/04/12 04:57:43;;;;;;;1.13;1.13;;;8.10;99.90;;;;;;4987438;28;20208;-84
2022/04/12 05:00:15;;;;;;;0.37;0.37;;;8.20;99.90;;;;;;4988889;28;20189;-83
2022/04/12 05:02:42;;;;;;;0.17;0.17;;;8.10;99.90;;;;;;4996282;28;20202;-84
2022/04/12 05:05:07;;;;;;;0.17;0.17;;;8.10;99.90;;;;;;4988723;28;20216;-84
2022/04/12 05:07:33;;;;;;;0.37;0.37;;;7.90;99.90;;;;;;4989661;28;20282;-84
2022/04/12 05:09:58;;;;;;;0.10;0.10;;;7.80;99.90;;;;;;4987006;28;20185;-84
2022/04/12 05:12:24;;;;;;;0.23;0.23;;;7.80;99.90;;;;;;4987117;28;20207;-84
2022/04/12 05:14:49;;;;;;;0.10;0.10;;;7.90;99.90;;;;;;4988327;28;20199;-83
2022/04/12 05:17:26;;;;;;;0.70;0.70;;;7.90;99.90;;;;;;4987513;28;20224;-84
2022/04/12 05:19:53;;;;;;;0.10;0.10;;;8.00;99.90;;;;;;4987712;28;20176;-83
2022/04/12 05:22:19;;;;;;;0.80;0.80;;;8.00;99.90;;;;;;4986981;28;20267;-82
2022/04/12 05:24:45;;;;;;;0.20;0.20;;;8.10;99.90;;;;;;4986279;28;20277;-82
2022/04/12 05:27:11;;;;;;;0.30;0.30;;;8.20;99.90;;;;;;4987151;28;20214;-82
2022/04/12 05:29:37;;;;;;;0.40;0.40;;;8.30;99.90;;;;;;4985597;28;20467;-82
2022/04/12 05:32:03;;;;;;;0.13;0.13;;;8.40;99.90;;;;;;4986739;28;20209;-82
2022/04/12 05:34:29;;;;;;;0.10;0.10;;;8.50;99.90;;;;;;4986388;28;20190;-81
2022/04/12 05:36:54;;;;;;;0.60;0.30;;;8.70;99.90;;;;;;4986327;28;20207;-80
2022/04/12 05:39:20;;;;;;;0.20;0.20;;;8.80;99.90;;;;;;4983933;28;20195;-81
2022/04/12 05:41:45;;;;;;;0.83;0.83;;;8.90;99.90;;;;;;4983894;28;20194;-81
2022/04/12 05:44:11;;;;;;;0.10;0.10;;;9.00;99.90;;;;;;4984517;28;20206;-80
2022/04/12 05:46:36;;;;;;;0.23;0.23;;;9.00;99.90;;;;;;4985928;28;20208;-81
2022/04/12 05:49:02;;;;;;;1.03;0.83;;;9.00;99.90;;;;;;4984076;28;20597;-81
2022/04/12 05:51:28;;;;;;;0.10;0.10;;;9.10;99.90;;;;;;4984343;28;20619;-81
2022/04/12 05:53:53;;;;;;;0.23;0.23;;;9.30;99.90;;;;;;4985574;28;20193;-81
2022/04/12 05:56:19;;;;;;;0.37;0.37;;;9.50;99.90;;;;;;4987532;28;20241;-81
2022/04/12 05:58:44;;;;;;;0.20;0.20;;;9.60;99.90;;;;;;4987768;28;20219;-82
2022/04/12 06:01:10;;;;;;;0.10;0.10;;;9.80;99.90;;;;;;4984326;28;20617;-81
2022/04/12 06:03:35;;;;;;;1.40;0.77;;;10.20;99.90;;;;;;4985951;28;20195;-81
2022/04/12 06:06:01;;;;;;;0.63;0.40;;;10.40;99.90;;;;;;4986577;28;20296;-81
2022/04/12 06:08:28;;;;;;;1.50;0.93;;;10.50;99.90;;;;;;4986618;28;20210;-81
2022/04/12 06:10:53;;;;;;;0.63;0.50;;;10.30;99.90;;;;;;4985701;28;20200;-80
2022/04/12 06:13:19;;;;;;;0.53;0.53;;;10.20;99.90;;;;;;4986623;28;20246;-81
2022/04/12 06:15:44;;;;;;;0.43;0.43;;;10.10;99.90;;;;;;4985057;28;20215;-81
2022/04/12 06:18:10;;;;;;;1.37;1.20;;;10.20;99.90;;;;;;4986971;28;20187;-81
2022/04/12 06:20:36;;;;;;;0.40;0.40;;;10.10;99.90;;;;;;4987985;28;20191;-82
2022/04/12 06:23:02;;;;;;;0.27;0.17;;;10.10;99.90;;;;;;4978200;28;20192;-81
2022/04/12 06:25:28;;;;;;;0.97;0.23;;;10.10;99.90;;;;;;4984273;28;20196;-80
2022/04/12 06:27:53;;;;;;;0.60;0.60;;;10.10;99.90;;;;;;4988450;28;20229;-81
2022/04/12 06:30:22;;;;;;;0.60;0.60;;;10.20;99.90;;;;;;4986028;28;20271;-81
2022/04/12 06:32:48;;;;;;;0.77;0.70;;;10.20;99.90;;;;;;4986005;28;20656;-81
2022/04/12 06:35:14;;;;;;;0.20;0.20;;;10.30;99.90;;;;;;4985867;28;20318;-81
2022/04/12 06:37:42;;;;;;;0.40;0.40;;;10.40;99.90;;;;;;4987073;28;20207;-80
2022/04/12 06:40:14;;;;;;;0.50;0.40;;;10.60;99.90;;;;;;4985829;28;20275;-80
2022/04/12 06:42:39;;;;;;;0.30;0.30;;;10.60;99.90;;;;;;4985082;28;20199;-81
2022/04/12 06:45:07;;;;;;;0.20;0.20;;;11.00;99.90;;;;;;4984768;28;20194;-81
2022/04/12 06:47:33;;;;;;;0.77;0.77;;;11.00;99.90;;;;;;4986203;28;20297;-82
2022/04/12 06:49:59;;;;;;;1.03;0.37;;;11.30;99.90;;;;;;4985990;28;20621;-80
2022/04/12 06:52:25;;;;;;;1.40;0.50;;;11.60;99.90;;;;;;4986436;28;20239;-81
2022/04/12 06:54:51;;;;;;;0.40;0.40;;;11.70;99.90;;;;;;4985055;28;20251;-81
2022/04/12 06:57:17;;;;;;;0.23;0.23;;;11.90;99.90;;;;;;4986559;28;20220;-81
2022/04/12 06:59:43;;;;;;;0.53;0.53;;;12.00;99.90;;;;;;4986646;28;20312;-80
2022/04/12 07:02:10;;;;;;;0.30;0.30;;;12.00;99.90;;;;;;4989780;28;20224;-80
2022/04/12 07:04:35;;;;;;;0.60;0.60;;;12.20;99.90;;;;;;4988144;28;20754;-81
2022/04/12 07:07:01;;;;;;;0.70;0.70;;;12.30;99.90;;;;;;4987005;28;20219;-81
2022/04/12 07:09:28;;;;;;;0.50;0.50;;;12.60;99.90;;;;;;4988398;28;20724;-81
2022/04/12 07:11:58;;;;;;;0.30;0.30;;;12.50;99.90;;;;;;4989076;28;20590;-81
2022/04/12 07:14:24;;;;;;;1.63;0.83;;;12.70;99.90;;;;;;4997862;28;20213;-81
2022/04/12 07:16:50;;;;;;;0.40;0.40;;;12.90;99.90;;;;;;4988348;28;20208;-81
2022/04/12 07:19:16;;;;;;;0.73;0.60;;;12.90;99.90;;;;;;4989133;28;20192;-82
2022/04/12 07:21:41;;;;;;;2.43;0.77;;;12.90;99.90;;;;;;4987801;28;20286;-81
2022/04/12 07:24:08;;;;;;;0.50;0.43;;;13.30;99.90;;;;;;4988232;28;20278;-81
2022/04/12 07:26:34;;;;;;;0.33;0.33;;;13.40;99.90;;;;;;4988787;28;20238;-82
2022/04/12 07:29:00;;;;;;;2.97;1.00;;;13.30;99.90;;;;;;4994932;28;20661;-82
2022/04/12 07:31:26;;;;;;;4.63;1.97;;;12.80;99.90;;;;;;4988569;28;20212;-81
2022/04/12 07:33:52;;;;;;;0.40;0.30;;;12.90;99.90;;;;;;4988805;28;20188;-82
2022/04/12 07:36:18;;;;;;;0.60;0.60;;;13.10;99.90;;;;;;4987851;28;20230;-81
2022/04/12 07:38:44;;;;;;;0.50;0.50;;;13.40;99.90;;;;;;4989063;28;20214;-81
2022/04/12 07:41:09;;;;;;;0.63;0.60;;;13.30;99.90;;;;;;4987100;28;20672;-81
2022/04/12 07:43:36;;;;;;;0.63;0.63;;;13.90;99.90;;;;;;4988697;28;20180;-81
2022/04/12 07:46:02;;;;;;;0.60;0.60;;;14.20;99.90;;;;;;4987804;28;20613;-82
2022/04/12 07:48:28;;;;;;;2.10;0.50;;;14.10;99.90;;;;;;5004443;28;20198;-81
2022/04/12 07:50:54;;;;;;;1.13;0.77;;;14.40;99.90;;;;;;4988019;28;20213;-82
2022/04/12 07:53:20;;;;;;;0.33;0.23;;;14.40;99.90;;;;;;4986638;28;20188;-82
2022/04/12 07:55:46;;;;;;;0.43;0.43;;;14.20;99.90;;;;;;4988627;28;20180;-81
2022/04/12 07:58:11;;;;;;;0.70;0.70;;;13.90;99.90;;;;;;4988737;28;20189;-81
2022/04/12 08:00:37;;;;;;;2.83;0.90;;;14.10;99.90;;;;;;4993984;28;20190;-82
2022/04/12 08:03:03;;;;;;;1.17;0.63;;;14.20;99.90;;;;;;4985804;28;20790;-82
2022/04/12 08:05:28;;;;;;;1.07;0.30;;;13.70;99.90;;;;;;4988785;28;20596;-81
2022/04/12 08:07:54;;;;;;;1.80;1.23;;;14.20;99.90;;;;;;4987845;28;20180;-82
2022/04/12 08:10:20;;;;;;;0.60;0.40;;;14.40;99.90;;;;;;4988250;28;20188;-82
2022/04/12 08:12:46;;;;;;;0.60;0.60;;;14.30;99.90;;;;;;4987876;28;20185;-82
2022/04/12 08:15:14;;;;;;;4.83;1.10;;;14.20;99.90;;;;;;4987842;28;20649;-81
2022/04/12 08:17:40;;;;;;;1.63;1.10;;;14.10;99.90;;;;;;4985608;28;20208;-82
2022/04/12 08:20:07;;;;;;;0.47;0.47;;;14.00;99.90;;;;;;4986985;28;20282;-81
2022/04/12 08:22:33;;;;;;;1.53;0.83;;;14.10;99.90;;;;;;4986063;28;20198;-82
2022/04/12 08:24:59;;;;;;;0.53;0.53;;;14.40;99.90;;;;;;4986856;28;20205;-83
2022/04/12 08:27:25;;;;;;;1.17;1.07;;;14.40;99.90;;;;;;4985728;28;20215;-84
2022/04/12 08:29:51;;;;;;;0.83;0.77;;;14.60;99.90;;;;;;4987861;28;20254;-83
2022/04/12 08:32:17;;;;;;;1.53;1.43;;;14.70;99.90;;;;;;4985445;28;20703;-83
2022/04/12 08:34:43;;;;;;;1.67;1.00;;;14.80;99.90;;;;;;4987812;28;20917;-82
2022/04/12 08:37:09;;;;;;;0.63;0.63;;;15.00;99.90;;;;;;4978666;28;20206;-82
2022/04/12 08:39:35;;;;;;;1.37;0.70;;;15.30;99.90;;;;;;4988141;28;20607;-81
2022/04/12 08:42:03;;;;;;;1.37;1.10;;;15.00;99.90;;;;;;4987030;28;20216;-81
2022/04/12 08:44:31;;;;;;;1.43;0.97;;;14.80;99.90;;;;;;4987086;28;20730;-81
2022/04/12 08:46:57;;;;;;;0.83;0.63;;;15.40;99.90;;;;;;4986930;28;20217;-82
2022/04/12 08:49:26;;;;;;;2.60;0.70;;;15.90;99.90;;;;;;4988775;28;20192;-81
2022/04/12 08:51:52;;;;;;;0.53;0.53;;;15.90;99.90;;;;;;4985780;28;20712;-82
2022/04/12 08:54:18;;;;;;;0.60;0.50;;;16.10;99.90;;;;;;4987856;28;20189;-82
2022/04/12 08:56:48;;;;;;;0.90;0.50;;;16.60;99.90;;;;;;5001494;28;21178;-84
2022/04/12 08:59:15;;;;;;;0.43;0.43;;;16.70;99.90;;;;;;4986150;28;20183;-84
2022/04/12 09:01:41;;;;;;;3.57;1.40;;;15.70;99.90;;;;;;4985465;28;20185;-84
2022/04/12 09:04:07;;;;;;;0.43;0.43;;;16.30;99.90;;;;;;4985184;28;20274;-84
2022/04/12 09:06:33;;;;;;;0.90;0.70;;;16.40;99.90;;;;;;4985744;28;20762;-84
2022/04/12 09:09:13;;;;;;;1.53;0.80;;;16.60;99.90;;;;;;4986513;28;20190;-83
2022/04/12 09:11:42;;;;;;;3.60;0.97;;;16.00;99.90;;;;;;4982914;28;20260;-83
2022/04/12 09:14:12;;;;;;;0.60;0.60;;;16.40;99.90;;;;;;4986877;28;20215;-84
2022/04/12 09:16:44;;;;;;;0.67;0.63;;;16.70;99.90;;;;;;4983905;28;20349;-84
2022/04/12 09:19:10;;;;;;;0.87;0.87;;;17.00;99.90;;;;;;4984010;28;20187;-84
2022/04/12 09:21:45;;;;;;;0.67;0.67;;;17.20;99.90;;;;;;4974163;28;20675;-84
2022/04/12 09:24:19;;;;;;;1.10;1.03;;;16.80;99.90;;;;;;4984824;28;20610;-84
2022/04/12 09:26:57;;;;;;;1.03;1.03;;;17.00;99.90;;;;;;4984302;28;20212;-84
2022/04/12 09:29:27;;;;;;;0.77;0.73;;;17.20;99.90;;;;;;4987246;28;20191;-82
2022/04/12 09:31:59;;;;;;;0.87;0.70;;;17.30;99.90;;;;;;4984643;28;22222;-84
2022/04/12 09:34:25;;;;;;;0.87;0.37;;;17.70;99.90;;;;;;4986938;28;20652;-84
2022/04/12 09:36:51;;;;;;;2.47;1.00;;;17.10;99.90;;;;;;4993923;28;20212;-84
2022/04/12 09:39:20;;;;;;;1.13;0.60;;;16.90;99.90;;;;;;4985349;28;20695;-84
2022/04/12 09:41:49;;;;;;;1.27;0.77;;;17.70;99.90;;;;;;5002222;28;20186;-84
2022/04/12 09:44:19;;;;;;;0.80;0.80;;;18.00;99.90;;;;;;4985540;28;20563;-84
2022/04/12 09:46:45;;;;;;;1.17;1.13;;;18.50;99.90;;;;;;4985363;28;20235;-84
2022/04/12 09:49:11;;;;;;;1.37;0.43;;;17.90;99.90;;;;;;4985148;28;20327;-84
2022/04/12 09:51:37;;;;;;;0.77;0.67;;;18.40;99.90;;;;;;4983172;28;20831;-83
2022/04/12 09:54:06;;;;;;;0.97;0.80;;;18.60;99.90;;;;;;4985287;28;20211;-84
2022/04/12 09:56:33;;;;;;;0.53;0.53;;;18.70;99.90;;;;;;4986809;28;20672;-84
2022/04/12 09:59:09;;;;;;;1.60;1.03;;;18.40;99.90;;;;;;4985820;28;20657;-84
2022/04/12 10:01:41;;;;;;;0.77;0.77;;;18.70;99.90;;;;;;4986222;28;20230;-84
2022/04/12 10:04:10;;;;;;;1.83;0.73;;;18.20;99.90;;;;;;4983943;28;20667;-84
2022/04/12 10:06:43;;;;;;;0.53;0.53;;;17.80;99.90;;;;;;4984380;28;20214;-84
2022/04/12 10:09:13;;;;;;;0.60;0.60;;;17.20;99.90;;;;;;4984528;28;20192;-83
2022/04/12 10:11:39;;;;;;;2.00;0.70;;;17.50;99.90;;;;;;4986913;28;20210;-84
2022/04/12 10:14:05;;;;;;;1.43;1.00;;;18.00;99.90;;;;;;4986001;28;20300;-84
2022/04/12 10:16:32;;;;;;;2.23;0.90;;;18.00;99.90;;;;;;4984401;28;20203;-84
2022/04/12 10:19:00;;;;;;;0.93;0.67;;;17.30;99.90;;;;;;4984990;28;20885;-84
2022/04/12 10:21:26;;;;;;;0.53;0.53;;;17.70;99.90;;;;;;4992713;28;20195;-84
2022/04/12 10:23:57;;;;;;;0.63;0.63;;;18.10;99.90;;;;;;4985461;28;20194;-84
2022/04/12 10:26:25;;;;;;;1.13;0.70;;;18.30;99.90;;;;;;4985623;28;20211;-83
2022/04/12 10:28:53;;;;;;;1.30;1.20;;;17.90;99.90;;;;;;4986188;28;20180;-84
2022/04/12 10:31:22;;;;;;;1.07;0.83;;;17.80;99.90;;;;;;4986030;28;20207;-84
2022/04/12 10:34:12;;;;;;;1.93;0.90;;;18.20;99.90;;;;;;5002100;28;20193;-84
2022/04/12 10:36:55;;;;;;;0.83;0.83;;;17.60;99.90;;;;;;4981889;28;20639;-84
2022/04/12 10:39:26;;;;;;;0.83;0.73;;;18.20;99.90;;;;;;4990654;28;20679;-85
2022/04/12 10:41:55;;;;;;;1.07;0.90;;;18.40;99.90;;;;;;4988795;28;20179;-84
2022/04/12 10:44:22;;;;;;;1.83;0.90;;;18.20;99.90;;;;;;4991121;28;20180;-84
2022/04/12 10:46:51;;;;;;;0.50;0.50;;;18.20;99.90;;;;;;5007513;28;20210;-84
2022/04/12 10:49:21;;;;;;;1.20;0.40;;;18.20;99.90;;;;;;4984418;28;20219;-84
2022/04/12 10:51:57;;;;;;;2.63;1.43;;;18.50;99.90;;;;;;4988914;28;20324;-84
2022/04/12 10:54:35;;;;;;;1.00;1.00;;;18.50;99.90;;;;;;4990636;28;20763;-84
2022/04/12 10:57:16;;;;;;;1.33;0.83;;;19.10;99.90;;;;;;4990590;28;21121;-84
2022/04/12 10:59:48;;;;;;;0.63;0.37;;;18.80;99.90;;;;;;4991328;28;20180;-83
2022/04/12 11:02:14;;;;;;;1.27;1.13;;;19.20;99.90;;;;;;4988535;28;20196;-84
2022/04/12 11:04:40;;;;;;;1.10;0.93;;;19.20;99.90;;;;;;4990239;28;20640;-84
2022/04/12 11:07:29;;;;;;;1.30;0.77;;;19.30;99.90;;;;;;5003247;28;20219;-83
2022/04/12 11:10:19;;;;;;;1.53;0.63;;;19.80;99.90;;;;;;4986204;28;20210;-84
2022/04/12 11:12:45;;;;;;;2.27;0.60;;;19.20;99.90;;;;;;4983551;28;20598;-84
2022/04/12 11:15:26;;;;;;;0.70;0.70;;;19.70;99.90;;;;;;4987960;28;20201;-84
2022/04/12 11:18:12;;;;;;;0.50;0.50;;;19.90;99.90;;;;;;5003803;28;20216;-84
2022/04/12 11:20:40;;;;;;;1.07;1.00;;;20.00;99.90;;;;;;4988721;28;20189;-84
2022/04/12 11:23:11;;;;;;;1.53;0.53;;;20.30;99.90;;;;;;4986416;28;20191;-84
2022/04/12 11:26:17;;;;;;;0.40;0.40;;;20.70;99.90;;;;;;4989218;28;20713;-84
2022/04/12 11:28:45;;;;;;;0.30;0.30;;;20.40;99.90;;;;;;4987330;28;20190;-84
2022/04/12 11:31:11;;;;;;;0.73;0.73;;;20.50;99.90;;;;;;4981241;28;20207;-83
2022/04/12 11:33:38;;;;;;;2.03;0.63;;;20.80;99.90;;;;;;4987419;28;20199;-84
2022/04/12 11:36:04;;;;;;;1.10;1.00;;;20.90;99.90;;;;;;4987150;28;20228;-84
2022/04/12 11:38:30;;;;;;;1.20;1.10;;;20.60;99.90;;;;;;4987987;28;20179;-84
2022/04/12 11:41:01;;;;;;;0.57;0.53;;;20.30;99.90;;;;;;4986804;28;20194;-84
2022/04/12 11:43:27;;;;;;;0.60;0.60;;;20.50;99.90;;;;;;4987906;28;20541;-83
2022/04/12 11:45:56;;;;;;;1.60;1.07;;;20.40;99.90;;;;;;4986196;28;20563;-84
2022/04/12 11:48:22;;;;;;;0.70;0.70;;;20.50;99.90;;;;;;4985992;28;20192;-84
2022/04/12 11:50:52;;;;;;;0.33;0.33;;;20.90;99.90;;;;;;4986626;28;20696;-84
2022/04/12 11:53:18;;;;;;;0.30;0.30;;;21.30;99.90;;;;;;4989518;28;20192;-83
2022/04/12 11:55:46;;;;;;;0.30;0.30;;;21.80;99.90;;;;;;4989796;28;20215;-82
2022/04/12 11:58:12;;;;;;;1.03;0.73;;;21.80;99.90;;;;;;4990430;28;20184;-82
2022/04/12 12:00:38;;;;;;;0.40;0.40;;;20.80;99.90;;;;;;4990303;28;20191;-82
2022/04/12 12:03:03;;;;;;;0.20;0.20;;;20.80;99.90;;;;;;4989538;28;20518;-82
2022/04/12 12:05:31;;;;;;;0.40;0.40;;;21.40;99.90;;;;;;4990933;28;20195;-82
2022/04/12 12:08:00;;;;;;;0.50;0.50;;;21.40;99.90;;;;;;4990732;28;20188;-82
2022/04/12 12:10:30;;;;;;;0.47;0.40;;;21.50;99.90;;;;;;4988935;28;20208;-81
2022/04/12 12:12:56;;;;;;;0.50;0.50;;;21.60;99.90;;;;;;4990921;28;20239;-82
2022/04/12 12:15:28;;;;;;;0.60;0.60;;;21.80;99.90;;;;;;4990392;28;20274;-82
2022/04/12 12:17:55;;;;;;;0.40;0.40;;;22.10;99.90;;;;;;4989998;28;20215;-82
2022/04/12 12:20:23;;;;;;;0.50;0.50;;;22.40;99.90;;;;;;4990604;28;20180;-82
2022/04/12 12:22:55;;;;;;;0.50;0.50;;;21.80;99.90;;;;;;4990842;28;20179;-82
2022/04/12 12:25:35;;;;;;;0.70;0.70;;;21.70;99.90;;;;;;4989609;28;20206;-81
2022/04/12 12:28:00;;;;;;;2.00;0.20;;;22.10;99.90;;;;;;4988167;28;20175;-82
2022/04/12 12:30:27;;;;;;;0.30;0.30;;;22.40;99.90;;;;;;4988807;28;20664;-82
2022/04/12 12:32:56;;;;;;;0.40;0.40;;;22.70;99.90;;;;;;4989263;28;20180;-82
2022/04/12 12:35:28;;;;;;;0.23;0.20;;;22.40;99.90;;;;;;4989506;28;20196;-81
2022/04/12 12:38:07;;;;;;;0.60;0.27;;;22.70;99.90;;;;;;4990440;28;20573;-81
2022/04/12 12:40:36;;;;;;;0.37;0.30;;;22.90;99.90;;;;;;4990228;28;20176;-82
2022/04/12 12:43:03;;;;;;;0.43;0.40;;;23.20;99.90;;;;;;4988145;28;20172;-82
2022/04/12 12:45:29;;;;;;;0.20;0.20;;;23.30;99.90;;;;;;4988745;28;20184;-82
2022/04/12 12:47:56;;;;;;;0.37;0.33;;;23.50;99.90;;;;;;4988513;28;20203;-82
2022/04/12 12:50:24;;;;;;;0.30;0.30;;;23.40;99.90;;;;;;4988204;28;20176;-82
2022/04/12 12:53:01;;;;;;;0.30;0.30;;;23.60;99.90;;;;;;4990155;28;20700;-82